createdAt,value
2022-08-03T00:03:31.325Z,18.80
2022-08-03T00:08:33.229Z,18.80
2022-08-03T00:13:42.091Z,18.90
2022-08-03T00:18:44.095Z,18.80
2022-08-03T00:23:51.199Z,18.70
2022-08-03T00:28:54.627Z,18.70
2022-08-03T00:33:59.701Z,18.60
2022-08-03T00:39:05.241Z,18.60
2022-08-03T00:44:07.098Z,18.50
2022-08-03T00:49:08.966Z,18.30
2022-08-03T00:54:11.084Z,18.30
2022-08-03T00:59:14.486Z,18.30
2022-08-03T01:04:16.342Z,18.30
2022-08-03T01:09:32.443Z,18.20
2022-08-03T01:14:44.275Z,18.30
2022-08-03T01:19:54.436Z,18.20
2022-08-03T01:25:20.885Z,18.20
2022-08-03T01:30:31.484Z,18.20
2022-08-03T01:35:39.265Z,18.10
2022-08-03T01:40:44.833Z,18.10
2022-08-03T01:45:48.191Z,18.10
2022-08-03T01:50:51.251Z,18.10
2022-08-03T01:55:56.065Z,18.00
2022-08-03T02:01:01.300Z,18.00
2022-08-03T02:06:58.979Z,18.00
2022-08-03T02:11:25.587Z,18.00
2022-08-03T02:16:31.057Z,17.90
2022-08-03T02:21:56.559Z,17.90
2022-08-03T02:26:59.772Z,17.90
2022-08-03T02:32:04.396Z,17.90
2022-08-03T02:37:07.977Z,17.80
2022-08-03T02:42:12.661Z,17.80
2022-08-03T02:47:16.290Z,17.90
2022-08-03T02:52:23.341Z,17.90
2022-08-03T02:57:28.024Z,17.90
2022-08-03T03:02:31.102Z,18.00
2022-08-03T03:07:41.039Z,17.90
2022-08-03T03:12:57.350Z,17.80
2022-08-03T03:18:01.050Z,17.80
2022-08-03T03:23:05.105Z,17.80
2022-08-03T03:28:07.616Z,17.80
2022-08-03T03:33:09.729Z,17.70
2022-08-03T03:38:11.992Z,17.70
2022-08-03T03:43:14.152Z,17.60
2022-08-03T03:48:16.202Z,17.50
2022-08-03T03:53:18.252Z,17.50
2022-08-03T03:58:21.230Z,17.40
2022-08-03T04:03:27.063Z,17.40
2022-08-03T04:08:47.467Z,17.40
2022-08-03T04:13:57.182Z,17.40
2022-08-03T04:19:19.656Z,17.40
2022-08-03T04:24:32.933Z,17.40
2022-08-03T04:29:38.637Z,17.40
2022-08-03T04:34:49.939Z,17.50
2022-08-03T04:39:54.301Z,17.50
2022-08-03T04:45:01.731Z,17.50
2022-08-03T04:50:08.114Z,17.50
2022-08-03T04:55:32.033Z,17.50
2022-08-03T05:00:34.085Z,17.50
2022-08-03T05:05:50.076Z,17.70
2022-08-03T05:10:52.621Z,17.80
2022-08-03T05:15:54.436Z,18.00
2022-08-03T05:20:56.286Z,18.10
2022-08-03T05:25:58.194Z,18.40
2022-08-03T05:31:00.038Z,18.90
2022-08-03T05:36:04.160Z,19.50
2022-08-03T05:41:21.090Z,19.90
2022-08-03T05:46:25.730Z,20.50
2022-08-03T05:51:28.906Z,22.00
2022-08-03T05:56:30.737Z,23.00
2022-08-03T06:01:33.197Z,24.00
2022-08-03T06:06:35.102Z,24.60
2022-08-03T06:11:37.693Z,25.00
2022-08-03T06:16:39.545Z,24.80
2022-08-03T06:21:41.373Z,24.20
2022-08-03T06:26:43.250Z,24.10
2022-08-03T06:31:45.427Z,23.70
2022-08-03T06:36:48.573Z,23.70
2022-08-03T06:41:50.434Z,23.80
2022-08-03T06:46:53.102Z,23.90
2022-08-03T06:52:03.717Z,24.10
2022-08-03T06:57:08.429Z,24.30
2022-08-03T07:02:11.420Z,24.80
2022-08-03T07:07:14.059Z,25.00
2022-08-03T07:12:16.183Z,25.30
2022-08-03T07:17:18.084Z,25.50
2022-08-03T07:22:20.037Z,25.70
2022-08-03T07:27:22.500Z,26.00
2022-08-03T07:32:24.813Z,26.20
2022-08-03T07:37:26.769Z,26.30
2022-08-03T07:42:29.938Z,26.50
2022-08-03T07:47:34.936Z,26.70
2022-08-03T07:52:50.077Z,26.80
2022-08-03T07:58:03.854Z,27.10
2022-08-03T08:03:05.772Z,27.10
2022-08-03T08:08:08.397Z,27.20
2022-08-03T08:13:10.295Z,27.40
2022-08-03T08:18:12.771Z,27.60
2022-08-03T08:23:38.010Z,27.70
2022-08-03T08:28:36.576Z,27.70
2022-08-03T08:39:00.991Z,27.80
2022-08-03T08:44:03.613Z,28.00
2022-08-03T08:49:08.566Z,28.20
2022-08-03T08:54:12.207Z,28.40
2022-08-03T08:59:14.873Z,28.40
2022-08-03T09:04:17.034Z,28.50
2022-08-03T09:10:01.254Z,28.70
2022-08-03T09:14:54.804Z,28.80
2022-08-03T09:20:10.540Z,29.00
2022-08-03T09:25:24.453Z,29.20
2022-08-03T09:30:34.767Z,29.30
2022-08-03T09:35:54.231Z,29.30
2022-08-03T09:41:00.010Z,29.40
2022-08-03T09:46:04.545Z,29.50
2022-08-03T09:51:33.001Z,29.50
2022-08-03T09:56:49.080Z,29.60
2022-08-03T10:01:51.806Z,29.80
2022-08-03T10:07:10.838Z,29.80
2022-08-03T10:12:13.938Z,30.00
2022-08-03T10:17:16.334Z,30.20
2022-08-03T10:22:28.200Z,30.30
2022-08-03T10:27:37.463Z,30.30
2022-08-03T10:32:48.393Z,30.30
2022-08-03T10:38:08.802Z,30.40
2022-08-03T10:43:18.588Z,30.60
2022-08-03T10:48:21.319Z,30.60
2022-08-03T10:53:52.828Z,30.60
2022-08-03T10:58:57.370Z,30.70
2022-08-03T11:03:59.687Z,30.80
2022-08-03T11:09:10.567Z,30.90
2022-08-03T11:14:20.703Z,31.20
2022-08-03T11:19:24.190Z,31.20
2022-08-03T11:24:41.454Z,31.20
2022-08-03T11:29:56.910Z,31.20
2022-08-03T11:35:07.587Z,31.30
2022-08-03T11:40:36.579Z,31.30
2022-08-03T11:45:38.567Z,31.30
2022-08-03T11:50:40.660Z,31.40
2022-08-03T11:55:46.814Z,31.40
2022-08-03T12:00:49.792Z,31.40
2022-08-03T12:05:54.832Z,31.60
2022-08-03T12:11:00.118Z,31.60
2022-08-03T12:16:02.529Z,31.60
2022-08-03T12:21:12.022Z,31.60
2022-08-03T12:26:13.879Z,31.60
2022-08-03T12:31:16.890Z,31.50
2022-08-03T12:36:19.876Z,31.50
2022-08-03T12:41:32.064Z,31.60
2022-08-03T12:46:42.698Z,31.80
2022-08-03T12:51:47.558Z,31.60
2022-08-03T12:57:02.434Z,31.70
2022-08-03T13:02:09.187Z,31.60
2022-08-03T13:07:14.170Z,31.60
2022-08-03T13:12:18.014Z,31.70
2022-08-03T13:17:20.600Z,31.80
2022-08-03T13:22:24.953Z,31.70
2022-08-03T13:28:04.517Z,31.80
2022-08-03T13:32:50.414Z,31.80
2022-08-03T13:37:52.300Z,31.90
2022-08-03T13:42:54.146Z,32.00
2022-08-03T13:47:56.102Z,31.80
2022-08-03T13:52:58.276Z,31.90
2022-08-03T13:58:03.345Z,31.80
2022-08-03T14:03:14.072Z,31.70
2022-08-03T14:08:17.081Z,31.60
2022-08-03T14:13:18.914Z,31.60
2022-08-03T14:18:28.384Z,31.40
2022-08-03T14:23:31.783Z,31.30
2022-08-03T14:28:35.444Z,31.00
2022-08-03T14:33:37.407Z,30.90
2022-08-03T14:38:39.389Z,30.80
2022-08-03T14:43:41.231Z,30.70
2022-08-03T14:50:31.108Z,30.60
2022-08-03T14:54:25.406Z,30.50
2022-08-03T14:59:27.775Z,30.40
2022-08-03T15:04:49.711Z,30.40
2022-08-03T15:09:51.543Z,30.30
2022-08-03T15:14:53.369Z,30.10
2022-08-03T15:20:02.036Z,30.00
2022-08-03T15:26:31.703Z,29.90
2022-08-03T15:30:31.346Z,29.80
2022-08-03T15:35:33.423Z,29.70
2022-08-03T15:40:37.538Z,29.60
2022-08-03T15:45:40.619Z,29.50
2022-08-03T15:50:44.124Z,29.30
2022-08-03T15:55:46.166Z,29.20
2022-08-03T16:00:48.153Z,29.10
2022-08-03T16:05:50.181Z,29.00
2022-08-03T16:10:52.142Z,28.90
2022-08-03T16:15:54.714Z,28.70
2022-08-03T16:20:59.934Z,28.50
2022-08-03T16:26:05.111Z,28.30
2022-08-03T16:31:09.452Z,28.10
2022-08-03T16:36:11.412Z,27.90
2022-08-03T16:41:13.239Z,27.80
2022-08-03T16:46:15.165Z,27.60
2022-08-03T16:51:17.110Z,27.50
2022-08-03T16:56:18.993Z,27.40
2022-08-03T17:01:24.580Z,27.20
2022-08-03T17:06:34.710Z,27.20
2022-08-03T17:11:39.015Z,27.10
2022-08-03T17:16:52.734Z,27.10
2022-08-03T17:22:04.123Z,27.00
2022-08-03T17:27:09.389Z,26.90
2022-08-03T17:32:34.711Z,26.80
2022-08-03T17:37:57.481Z,26.60
2022-08-03T17:43:00.661Z,26.40
2022-08-03T17:48:02.497Z,26.20
2022-08-03T17:53:15.433Z,26.00
2022-08-03T17:58:55.047Z,25.70
2022-08-03T18:04:02.798Z,25.50
2022-08-03T18:10:03.902Z,25.30
2022-08-03T18:14:57.563Z,25.10
2022-08-03T18:20:09.167Z,24.90
2022-08-03T18:25:15.534Z,24.70
2022-08-03T18:30:20.422Z,24.60
2022-08-03T18:35:53.388Z,24.40
2022-08-03T18:40:51.899Z,24.40
2022-08-03T18:45:57.991Z,24.10
2022-08-03T18:51:09.655Z,23.90
2022-08-03T18:56:32.173Z,23.80
2022-08-03T19:02:00.069Z,23.60
2022-08-03T19:07:08.462Z,23.50
2022-08-03T19:12:28.053Z,23.40
2022-08-03T19:17:40.096Z,23.30
2022-08-03T19:22:45.762Z,23.30
2022-08-03T19:27:48.782Z,23.20
2022-08-03T19:32:51.316Z,23.10
2022-08-03T19:37:53.281Z,23.10
2022-08-03T19:43:04.109Z,22.90
2022-08-03T19:48:11.786Z,22.90
2022-08-03T19:53:14.122Z,22.80
2022-08-03T19:58:17.506Z,22.80
2022-08-03T20:08:53.720Z,22.70
2022-08-03T20:13:58.284Z,22.60
2022-08-03T20:19:01.470Z,22.60
2022-08-03T20:24:23.804Z,22.50
2022-08-03T20:30:04.971Z,22.40
2022-08-03T20:35:05.101Z,22.20
2022-08-03T20:40:12.392Z,22.10
2022-08-03T20:45:59.577Z,22.00
2022-08-03T20:50:40.705Z,22.00
2022-08-03T20:55:47.732Z,21.90
2022-08-03T21:01:04.005Z,21.70
2022-08-03T21:06:07.176Z,21.60
2022-08-03T21:11:17.157Z,21.50
2022-08-03T21:13:03.418Z,22.80
2022-08-03T21:16:21.561Z,21.60
2022-08-03T21:21:24.029Z,21.40
2022-08-03T21:26:27.237Z,21.40
2022-08-03T21:31:29.208Z,21.40
2022-08-03T21:36:33.957Z,21.30
2022-08-03T21:41:37.706Z,21.20
2022-08-03T21:46:42.293Z,21.10
2022-08-03T21:51:45.433Z,20.90
2022-08-03T21:56:48.466Z,20.80
2022-08-03T22:01:55.142Z,20.70
2022-08-03T22:07:00.890Z,20.60
2022-08-03T22:12:03.450Z,20.50
2022-08-03T22:17:07.298Z,20.40
2022-08-03T22:22:13.874Z,20.40
2022-08-03T22:27:32.582Z,20.40
2022-08-03T22:32:34.534Z,20.30
2022-08-03T22:37:37.226Z,20.30
2022-08-03T22:42:41.558Z,20.30
2022-08-03T22:47:43.420Z,20.20
2022-08-03T22:52:45.493Z,20.10
2022-08-03T22:57:55.568Z,20.20
2022-08-03T23:03:01.824Z,20.00
2022-08-03T23:08:05.738Z,20.00
2022-08-03T23:13:07.949Z,19.90
2022-08-03T23:18:10.076Z,19.80
2022-08-03T23:23:12.498Z,19.70
2022-08-03T23:28:16.372Z,19.70
2022-08-03T23:33:18.797Z,19.60
2022-08-03T23:38:23.338Z,19.50
2022-08-03T23:43:50.829Z,19.50
2022-08-03T23:48:49.821Z,19.40
2022-08-03T23:54:02.137Z,19.30
2022-08-03T23:59:21.636Z,19.30
